Time;durP1;ratioP1;P1;durP2;ratioP2;P2;SDS_P1;SDS_P2;PMS_P1;PMS_P2;Temp;Humidity;BMP_temperature;BMP_pressure;BME280_temperature;BME280_humidity;BME280_pressure;Samples;Min_cycle;Max_cycle;Signal;HPM_P1;HPM_P2
2021/05/25 00:02:07;;;;;;;5.10;2.13;;;;;;;11.39;77.35;101270.69;5071710;28;20204;-68
2021/05/25 00:04:34;;;;;;;4.17;2.37;;;;;;;11.39;76.47;101259.91;5070495;28;20252;-68
2021/05/25 00:07:02;;;;;;;4.30;2.70;;;;;;;11.31;76.35;101251.44;5071116;28;20700;-68
2021/05/25 00:09:30;;;;;;;5.73;2.03;;;;;;;11.28;75.65;101224.75;5070809;28;20199;-68
2021/05/25 00:11:58;;;;;;;4.37;2.43;;;;;;;11.43;76.18;101261.44;5070973;28;20206;-67
2021/05/25 00:14:25;;;;;;;2.70;2.37;;;;;;;11.44;76.20;101262.31;5070176;28;20248;-67
2021/05/25 00:16:53;;;;;;;4.93;2.27;;;;;;;11.42;75.74;101264.22;5057555;28;20214;-67
2021/05/25 00:19:22;;;;;;;8.23;2.30;;;;;;;11.37;75.85;101266.34;5083571;28;20673;-68
2021/05/25 00:21:49;;;;;;;5.57;2.13;;;;;;;11.36;75.94;101273.56;5071195;28;20200;-68
2021/05/25 00:24:17;;;;;;;8.10;3.13;;;;;;;11.27;76.39;101287.56;5070446;28;20215;-68
2021/05/25 00:26:45;;;;;;;7.77;2.40;;;;;;;11.18;77.42;101280.94;5084404;28;20789;-67
2021/05/25 00:29:12;;;;;;;6.47;2.60;;;;;;;11.15;77.68;101282.94;5080824;28;20301;-68
2021/05/25 00:31:41;;;;;;;4.43;2.57;;;;;;;11.23;77.58;101285.16;5073820;28;20208;-68
2021/05/25 00:34:09;;;;;;;6.93;2.53;;;;;;;11.16;78.28;101284.66;5068642;28;20204;-68
2021/05/25 00:36:37;;;;;;;3.97;2.13;;;;;;;11.12;79.16;101281.31;5069968;28;20269;-68
2021/05/25 00:39:06;;;;;;;4.90;2.57;;;;;;;11.09;78.77;101278.81;5070399;28;20848;-67
2021/05/25 00:41:34;;;;;;;2.90;2.60;;;;;;;11.04;79.68;101282.75;5069870;28;20205;-68
2021/05/25 00:44:03;;;;;;;3.27;2.30;;;;;;;11.02;80.16;101279.25;5068974;28;20578;-67
2021/05/25 00:46:31;;;;;;;5.60;2.70;;;;;;;10.91;79.92;101274.53;5086079;28;20607;-67
2021/05/25 00:48:58;;;;;;;4.93;2.73;;;;;;;10.91;80.73;101287.13;5058462;28;20279;-67
2021/05/25 00:51:26;;;;;;;4.47;2.63;;;;;;;10.99;80.38;101276.75;5068065;28;20200;-68
2021/05/25 00:53:54;;;;;;;5.63;2.33;;;;;;;11.04;80.20;101275.56;5081278;28;20207;-67
2021/05/25 00:56:22;;;;;;;4.57;2.57;;;;;;;11.11;80.53;101278.72;5071398;28;20230;-67
2021/05/25 00:58:51;;;;;;;5.50;2.43;;;;;;;11.00;80.62;101283.88;5068122;28;20759;-67
2021/05/25 01:01:19;;;;;;;4.33;2.90;;;;;;;10.99;80.92;101277.63;5071350;28;20659;-68
2021/05/25 01:03:47;;;;;;;5.97;3.17;;;;;;;10.97;81.08;101265.25;5079390;28;20214;-66
2021/05/25 01:06:14;;;;;;;5.13;2.70;;;;;;;11.00;81.44;101278.50;5069106;28;20676;-65
2021/05/25 01:08:42;;;;;;;3.33;2.63;;;;;;;11.08;80.40;101270.84;5079155;28;20253;-68
2021/05/25 01:11:13;;;;;;;7.07;2.70;;;;;;;11.24;79.48;101271.63;5071574;28;20213;-66
2021/05/25 01:13:45;;;;;;;3.57;2.63;;;;;;;11.29;79.64;101261.44;5059112;28;20251;-67
2021/05/25 01:16:14;;;;;;;8.10;2.97;;;;;;;11.19;79.65;101262.97;5071081;28;20244;-66
2021/05/25 01:18:42;;;;;;;3.93;2.83;;;;;;;11.10;80.38;101253.66;5069354;28;20264;-66
2021/05/25 01:21:12;;;;;;;4.30;2.90;;;;;;;11.13;79.33;101231.09;5080185;28;20199;-66
2021/05/25 01:23:41;;;;;;;6.63;2.57;;;;;;;11.16;79.82;101252.41;5077213;28;20517;-66
2021/05/25 01:26:09;;;;;;;3.17;2.73;;;;;;;11.18;79.12;101251.34;5071356;28;20193;-66
2021/05/25 01:28:38;;;;;;;5.00;2.63;;;;;;;11.06;79.45;101229.75;5078640;28;20202;-67
2021/05/25 01:31:06;;;;;;;3.80;2.57;;;;;;;11.23;79.12;101252.88;5080714;28;20226;-68
2021/05/25 01:33:36;;;;;;;7.47;2.60;;;;;;;11.23;78.92;101247.50;5069009;28;20282;-68
2021/05/25 01:36:05;;;;;;;3.97;2.20;;;;;;;11.23;78.25;101243.00;5069033;28;20285;-66
2021/05/25 01:38:33;;;;;;;6.33;3.10;;;;;;;11.27;77.90;101239.16;5072448;28;20277;-66
2021/05/25 01:41:03;;;;;;;7.07;2.33;;;;;;;11.32;77.33;101242.41;5084860;28;20293;-68
2021/05/25 01:43:31;;;;;;;3.13;2.23;;;;;;;11.34;77.42;101247.72;5072329;28;20251;-67
2021/05/25 01:45:59;;;;;;;3.23;2.60;;;;;;;11.28;77.51;101245.41;5077389;28;20202;-68
2021/05/25 01:48:27;;;;;;;22.07;13.57;;;;;;;11.15;77.34;101248.00;5068214;28;20191;-67
2021/05/25 01:50:54;;;;;;;5.97;3.70;;;;;;;11.11;77.20;101244.63;5068395;28;20278;-67
2021/05/25 01:53:26;;;;;;;7.37;2.50;;;;;;;11.18;76.99;101245.97;5071470;28;20198;-66
2021/05/25 01:55:55;;;;;;;5.90;2.80;;;;;;;11.13;76.92;101229.28;5078879;28;20288;-66
2021/05/25 01:58:26;;;;;;;3.60;2.37;;;;;;;11.19;77.15;101246.84;5082254;28;20209;-66
2021/05/25 02:00:56;;;;;;;2.87;2.50;;;;;;;11.10;76.82;101244.72;5077846;28;20201;-67
2021/05/25 02:03:24;;;;;;;6.57;2.40;;;;;;;11.10;77.08;101234.84;5071549;28;20283;-66
2021/05/25 02:05:52;;;;;;;4.83;2.43;;;;;;;11.02;77.29;101231.78;5076172;28;20207;-67
2021/05/25 02:08:21;;;;;;;6.77;2.30;;;;;;;11.07;76.66;101231.50;5066630;28;20217;-67
2021/05/25 02:10:50;;;;;;;2.33;2.00;;;;;;;11.05;77.12;101234.28;5068656;28;20197;-67
2021/05/25 02:13:19;;;;;;;3.13;2.20;;;;;;;11.01;76.56;101221.97;5067163;28;20235;-67
2021/05/25 02:15:49;;;;;;;3.10;2.03;;;;;;;10.88;76.63;101203.06;5072414;28;20307;-68
2021/05/25 02:18:20;;;;;;;4.33;2.10;;;;;;;11.07;76.44;101226.13;5071458;28;20876;-67
2021/05/25 02:20:49;;;;;;;3.40;2.80;;;;;;;11.10;76.08;101216.03;5071073;28;20233;-67
2021/05/25 02:23:17;;;;;;;3.23;2.00;;;;;;;11.04;76.03;101210.19;5068242;28;20228;-67
2021/05/25 02:25:45;;;;;;;6.40;5.13;;;;;;;11.16;76.04;101220.16;5067268;28;20203;-67
2021/05/25 02:28:13;;;;;;;9.10;2.73;;;;;;;11.25;75.68;101227.63;5074148;28;20421;-67
2021/05/25 02:30:42;;;;;;;5.23;2.10;;;;;;;11.16;76.03;101221.03;5068974;28;20199;-67
2021/05/25 02:33:14;;;;;;;4.67;1.97;;;;;;;11.14;75.68;101222.94;5070399;28;20198;-67
2021/05/25 02:35:43;;;;;;;2.67;1.83;;;;;;;11.16;75.41;101222.84;5070013;28;20190;-67
2021/05/25 02:38:13;;;;;;;4.30;1.93;;;;;;;11.04;75.92;101218.25;5070825;28;20200;-67
2021/05/25 02:40:42;;;;;;;4.37;2.10;;;;;;;10.63;76.33;101173.28;5068120;28;20275;-67
2021/05/25 02:43:10;;;;;;;2.23;2.00;;;;;;;10.88;75.97;101216.50;5074268;28;20198;-66
2021/05/25 02:45:38;;;;;;;3.50;2.20;;;;;;;10.81;76.20;101190.09;5067872;28;20190;-66
2021/05/25 02:48:06;;;;;;;2.53;1.93;;;;;;;11.03;75.33;101219.22;5067343;28;20204;-68
2021/05/25 02:50:36;;;;;;;3.13;2.07;;;;;;;10.97;75.65;101217.72;5072723;28;20238;-68
2021/05/25 02:53:03;;;;;;;4.07;2.47;;;;;;;10.94;76.00;101220.63;5071557;28;20195;-67
2021/05/25 02:55:33;;;;;;;7.00;2.20;;;;;;;10.89;75.68;101217.34;5076528;28;20222;-67
2021/05/25 02:58:02;;;;;;;3.23;1.93;;;;;;;10.63;76.28;101180.47;5078656;28;20248;-67
2021/05/25 03:00:33;;;;;;;4.17;2.10;;;;;;;10.85;75.87;101222.06;5071367;28;20203;-67
2021/05/25 03:03:01;;;;;;;2.73;1.90;;;;;;;10.73;76.17;101217.44;5072299;28;20620;-68
2021/05/25 03:05:28;;;;;;;2.33;2.10;;;;;;;10.82;76.49;101218.69;5071419;28;20220;-67
2021/05/25 03:07:59;;;;;;;1.87;1.77;;;;;;;10.81;76.44;101227.72;5073924;28;20325;-67
2021/05/25 03:10:28;;;;;;;5.23;2.30;;;;;;;10.90;75.72;101229.81;5066648;28;20221;-67
2021/05/25 03:12:57;;;;;;;5.53;2.00;;;;;;;10.96;75.33;101223.22;5076180;28;20237;-67
2021/05/25 03:15:29;;;;;;;3.83;2.23;;;;;;;11.03;74.70;101230.81;5092143;28;20198;-67
2021/05/25 03:17:57;;;;;;;2.03;1.83;;;;;;;10.73;75.32;101187.88;5073337;28;20419;-67
2021/05/25 03:20:26;;;;;;;2.33;2.07;;;;;;;10.91;75.88;101219.94;5070911;28;20186;-68
2021/05/25 03:22:54;;;;;;;3.60;2.00;;;;;;;10.86;75.49;101213.03;5070374;28;20193;-68
2021/05/25 03:25:23;;;;;;;3.27;2.20;;;;;;;10.91;75.44;101199.31;5069763;28;20636;-69
2021/05/25 03:27:51;;;;;;;3.90;2.03;;;;;;;10.96;74.98;101202.56;5071401;28;20232;-68
2021/05/25 03:30:20;;;;;;;2.10;1.77;;;;;;;11.05;74.85;101214.59;5071162;28;20584;-69
2021/05/25 03:32:49;;;;;;;4.13;2.17;;;;;;;10.70;73.74;101128.09;5071696;28;20205;-68
2021/05/25 03:35:18;;;;;;;2.87;1.90;;;;;;;11.19;74.41;101211.91;5089846;28;20698;-70
2021/05/25 03:37:46;;;;;;;3.13;2.07;;;;;;;11.12;74.56;101202.50;5076252;28;20229;-70
2021/05/25 03:40:14;;;;;;;4.00;2.03;;;;;;;11.14;74.66;101197.88;5076113;28;20604;-70
2021/05/25 03:42:45;;;;;;;2.03;1.67;;;;;;;11.03;75.04;101198.56;5085001;28;20219;-70
2021/05/25 03:45:14;;;;;;;2.80;1.63;;;;;;;10.96;74.93;101190.97;5062135;28;20704;-68
2021/05/25 03:47:42;;;;;;;4.17;1.73;;;;;;;11.07;75.62;101208.16;5080365;28;20200;-67
2021/05/25 03:50:11;;;;;;;8.63;1.83;;;;;;;11.09;75.31;101200.00;5074440;28;20687;-68
2021/05/25 03:52:40;;;;;;;4.20;1.60;;;;;;;10.96;75.48;101213.31;5089209;28;20198;-68
2021/05/25 03:55:14;;;;;;;2.60;1.90;;;;;;;11.02;75.28;101215.66;5089048;28;20194;-68
2021/05/25 04:00:28;;;;;;;2.00;1.60;;;;;;;11.00;74.34;101205.94;5067897;28;20204;-68
2021/05/25 04:02:56;;;;;;;5.10;1.87;;;;;;;11.00;75.01;101219.38;5079021;28;20201;-68
2021/05/25 04:05:23;;;;;;;3.97;1.60;;;;;;;11.00;74.45;101214.00;5082759;28;20222;-68
2021/05/25 04:07:51;;;;;;;2.87;1.50;;;;;;;11.00;74.67;101208.63;5075840;28;20203;-68
2021/05/25 04:10:19;;;;;;;1.40;1.30;;;;;;;10.93;74.85;101213.50;5075708;28;20315;-68
2021/05/25 04:12:46;;;;;;;3.30;1.50;;;;;;;10.89;74.75;101207.47;5073861;28;20236;-68
2021/05/25 04:15:15;;;;;;;3.33;1.40;;;;;;;10.91;74.44;101209.19;5077302;28;20379;-70
2021/05/25 04:17:43;;;;;;;2.80;1.27;;;;;;;10.92;74.09;101216.28;5081491;28;20210;-70
2021/05/25 04:20:12;;;;;;;3.77;1.20;;;;;;;10.94;74.59;101214.38;5075380;28;20272;-70
2021/05/25 04:22:40;;;;;;;1.53;1.20;;;;;;;11.03;73.68;101216.53;5076543;28;20210;-70
2021/05/25 04:25:09;;;;;;;1.40;1.30;;;;;;;11.04;73.95;101220.94;5071933;28;20323;-70
2021/05/25 04:27:38;;;;;;;1.93;1.10;;;;;;;11.03;73.68;101216.53;5078482;28;20237;-68
2021/05/25 04:30:10;;;;;;;2.43;1.20;;;;;;;11.00;73.92;101219.38;5076316;28;20671;-67
2021/05/25 04:32:38;;;;;;;3.03;1.37;;;;;;;10.84;73.99;101211.41;5076336;28;20210;-70
2021/05/25 04:35:08;;;;;;;2.07;1.13;;;;;;;10.78;73.90;101206.41;5073110;28;20756;-70
2021/05/25 04:37:36;;;;;;;188.63;95.53;;;;;;;10.84;74.54;101214.94;5072957;28;20190;-70
2021/05/25 04:40:07;;;;;;;6.27;2.57;;;;;;;10.89;75.16;101207.47;5067372;28;20200;-69
2021/05/25 04:42:36;;;;;;;2.63;1.47;;;;;;;10.84;75.41;101198.84;5072557;28;20202;-69
2021/05/25 04:45:07;;;;;;;2.20;1.60;;;;;;;10.71;75.32;101187.09;5073123;28;20706;-69
2021/05/25 04:47:37;;;;;;;4.27;1.37;;;;;;;10.80;75.53;101202.66;5057364;28;20231;-69
2021/05/25 04:50:06;;;;;;;5.10;1.67;;;;;;;10.89;75.38;101190.47;5072729;28;20536;-69
2021/05/25 04:52:35;;;;;;;3.00;1.80;;;;;;;10.96;75.22;101207.09;5070643;28;20238;-69
2021/05/25 04:55:07;;;;;;;3.27;1.50;;;;;;;10.89;76.32;101206.59;5082353;28;20197;-69
2021/05/25 04:57:35;;;;;;;2.93;1.50;;;;;;;10.93;76.25;101207.28;5071001;28;20195;-69
2021/05/25 05:00:04;;;;;;;4.87;1.50;;;;;;;10.97;75.95;101217.72;5075403;28;20193;-69
2021/05/25 05:02:32;;;;;;;7.53;1.77;;;;;;;11.00;76.43;101214.00;5066544;28;20192;-69
2021/05/25 05:05:00;;;;;;;2.07;1.70;;;;;;;10.62;76.46;101146.50;5066272;28;20216;-69
2021/05/25 05:07:28;;;;;;;2.60;1.90;;;;;;;11.07;77.22;101220.75;5067899;28;20211;-71
2021/05/25 05:09:56;;;;;;;5.33;1.60;;;;;;;11.14;77.24;101224.75;5065053;28;20272;-71
2021/05/25 05:12:25;;;;;;;1.90;1.60;;;;;;;11.10;76.93;101204.41;5070430;28;20203;-68
2021/05/25 05:14:54;;;;;;;1.77;1.53;;;;;;;11.05;76.83;101215.47;5067911;28;20206;-69
2021/05/25 05:17:23;;;;;;;4.67;1.67;;;;;;;11.12;77.22;101214.13;5069089;28;20191;-69
2021/05/25 05:19:51;;;;;;;3.13;1.50;;;;;;;11.20;77.04;101217.19;5067079;28;20204;-69
2021/05/25 05:22:19;;;;;;;4.03;1.73;;;;;;;11.10;76.92;101216.03;5066996;28;20564;-69
2021/05/25 05:24:47;;;;;;;4.20;1.70;;;;;;;11.21;76.84;101223.41;5068338;28;20254;-69
2021/05/25 05:27:15;;;;;;;2.87;1.60;;;;;;;11.27;77.04;101233.78;5068694;28;20214;-70
2021/05/25 05:29:43;;;;;;;1.70;1.60;;;;;;;11.19;77.11;101231.56;5070697;28;20279;-69
2021/05/25 05:32:13;;;;;;;1.50;1.40;;;;;;;11.12;77.51;101221.31;5068607;28;20195;-71
2021/05/25 05:34:41;;;;;;;1.73;1.60;;;;;;;11.24;77.06;101217.84;5069788;28;20195;-70
2021/05/25 05:37:09;;;;;;;2.30;1.57;;;;;;;11.36;76.96;101221.59;5069233;28;20659;-70
2021/05/25 05:39:37;;;;;;;2.57;1.63;;;;;;;11.28;76.47;101215.81;5071346;28;20540;-70
2021/05/25 05:42:05;;;;;;;3.33;1.50;;;;;;;11.29;76.66;101209.47;5067417;28;20208;-70
2021/05/25 05:44:34;;;;;;;2.90;1.63;;;;;;;11.25;75.91;101208.81;5076266;28;20239;-70
2021/05/25 05:47:02;;;;;;;3.87;1.80;;;;;;;11.17;76.42;101211.13;5070514;28;20191;-70
2021/05/25 05:49:30;;;;;;;3.40;1.27;;;;;;;11.13;75.58;101201.53;5075534;28;20283;-70
2021/05/25 05:51:57;;;;;;;2.73;1.77;;;;;;;11.08;75.12;101200.97;5068979;28;20435;-68
2021/05/25 05:54:25;;;;;;;2.30;1.30;;;;;;;11.10;74.84;101199.03;5065509;28;20253;-68
2021/05/25 05:56:53;;;;;;;1.50;1.40;;;;;;;11.10;74.29;101183.78;5067041;28;20212;-68
2021/05/25 05:59:20;;;;;;;2.27;1.03;;;;;;;11.19;74.10;101198.44;5066368;28;20283;-68
2021/05/25 06:01:49;;;;;;;1.70;1.40;;;;;;;11.25;73.71;101200.75;5066074;28;20617;-68
2021/05/25 06:04:17;;;;;;;3.00;1.13;;;;;;;11.27;73.38;101180.00;5065944;28;20672;-68
2021/05/25 06:06:48;;;;;;;1.50;1.30;;;;;;;11.37;73.51;101191.06;5066105;28;20197;-68
2021/05/25 06:09:15;;;;;;;2.87;1.27;;;;;;;11.05;73.52;101167.09;5068395;28;20241;-68
2021/05/25 06:11:45;;;;;;;3.30;1.23;;;;;;;11.26;73.42;101199.78;5063701;28;20291;-67
2021/05/25 06:14:13;;;;;;;1.20;1.10;;;;;;;11.31;74.11;101197.66;5064582;28;20492;-68
2021/05/25 06:16:40;;;;;;;1.73;1.23;;;;;;;11.16;74.21;101166.41;5065803;28;20213;-68
2021/05/25 06:19:09;;;;;;;1.27;1.17;;;;;;;11.34;73.78;101193.94;5069094;28;20200;-71
2021/05/25 06:21:41;;;;;;;2.20;1.30;;;;;;;11.44;74.00;101187.88;5069054;28;20585;-69
2021/05/25 06:24:12;;;;;;;5.80;1.50;;;;;;;11.38;73.10;101192.78;5067564;28;20728;-69
2021/05/25 06:26:40;;;;;;;1.13;1.00;;;;;;;11.37;73.52;101181.16;5068879;28;20287;-68
2021/05/25 06:29:08;;;;;;;1.73;1.03;;;;;;;11.36;73.69;101176.75;5074152;28;20198;-68
2021/05/25 06:31:35;;;;;;;1.37;1.10;;;;;;;11.39;73.37;101175.69;5073261;28;20221;-70
2021/05/25 06:34:03;;;;;;;1.40;1.00;;;;;;;11.44;73.30;101187.88;5074668;28;20268;-68
2021/05/25 06:36:32;;;;;;;2.80;1.20;;;;;;;11.33;73.42;101179.63;5075964;28;20213;-68
2021/05/25 06:39:05;;;;;;;1.03;0.93;;;;;;;11.40;73.72;101183.66;5073078;28;20277;-68
2021/05/25 06:41:33;;;;;;;6.43;1.13;;;;;;;11.49;72.92;101180.38;5075940;28;20668;-67
2021/05/25 06:44:01;;;;;;;2.43;1.10;;;;;;;11.59;72.81;101175.25;5074837;28;20205;-71
2021/05/25 06:46:28;;;;;;;2.27;1.33;;;;;;;11.71;73.12;101176.28;5070910;28;20254;-68
2021/05/25 06:48:56;;;;;;;2.67;1.20;;;;;;;11.73;72.38;101175.22;5073249;28;20559;-67
2021/05/25 06:51:26;;;;;;;3.13;1.40;;;;;;;11.72;72.87;101169.94;5071002;28;20196;-68
2021/05/25 06:53:54;;;;;;;4.37;1.30;;;;;;;11.74;72.93;101182.31;5074149;28;20683;-68
2021/05/25 06:56:22;;;;;;;1.47;1.30;;;;;;;11.85;73.77;101173.56;5073929;28;20206;-68
2021/05/25 06:58:50;;;;;;;4.80;1.40;;;;;;;11.85;73.64;101175.41;5073018;28;20278;-67
2021/05/25 07:01:17;;;;;;;2.83;1.67;;;;;;;11.84;73.48;101179.06;5073715;28;20204;-67
2021/05/25 07:03:45;;;;;;;3.70;1.37;;;;;;;11.92;72.92;101172.19;5071453;28;20287;-68
2021/05/25 07:06:12;;;;;;;1.70;1.30;;;;;;;11.99;73.04;101170.84;5073661;28;20220;-67
2021/05/25 07:08:40;;;;;;;1.30;1.20;;;;;;;12.11;73.11;101163.75;5072435;28;20233;-67
2021/05/25 07:11:09;;;;;;;3.60;1.27;;;;;;;12.12;73.21;101174.44;5074359;28;20199;-67
2021/05/25 07:13:36;;;;;;;2.93;1.40;;;;;;;12.10;72.55;101176.34;5072407;28;20236;-67
2021/05/25 07:16:05;;;;;;;1.20;1.10;;;;;;;12.12;72.40;101168.19;5075236;28;20207;-67
2021/05/25 07:18:32;;;;;;;2.50;1.40;;;;;;;12.14;72.39;101160.84;5074355;28;20195;-67
2021/05/25 07:21:00;;;;;;;1.30;1.20;;;;;;;12.30;72.30;101163.38;5072595;28;20196;-67
2021/05/25 07:23:32;;;;;;;1.77;1.27;;;;;;;12.27;71.49;101150.13;5073506;28;20239;-67
2021/05/25 07:26:00;;;;;;;2.63;1.10;;;;;;;11.97;72.11;101121.63;5069084;28;20209;-67
2021/05/25 07:28:29;;;;;;;1.37;1.27;;;;;;;12.29;72.38;101156.28;5073744;28;20193;-67
2021/05/25 07:30:56;;;;;;;5.70;1.30;;;;;;;12.34;72.41;101157.69;5069537;28;20332;-67
2021/05/25 07:33:25;;;;;;;1.93;1.50;;;;;;;12.38;72.11;101148.41;5071174;28;20203;-68
2021/05/25 07:35:54;;;;;;;5.70;1.40;;;;;;;12.50;72.12;101146.69;5074078;28;20193;-70
2021/05/25 07:38:22;;;;;;;1.83;1.30;;;;;;;12.59;72.19;101146.09;5070704;28;20198;-71
2021/05/25 07:40:50;;;;;;;1.87;1.20;;;;;;;12.51;71.67;101150.25;5069205;28;20209;-70
2021/05/25 07:43:17;;;;;;;4.07;1.50;;;;;;;12.59;71.76;101154.16;5070800;28;20196;-71
2021/05/25 07:45:46;;;;;;;4.50;1.50;;;;;;;12.64;70.92;101154.69;5070641;28;20586;-71
2021/05/25 07:48:14;;;;;;;4.73;1.30;;;;;;;12.59;70.05;101143.38;5071595;28;20225;-71
2021/05/25 07:50:42;;;;;;;4.07;1.60;;;;;;;12.46;68.98;101122.78;5069681;28;20703;-71
2021/05/25 07:53:10;;;;;;;3.27;1.33;;;;;;;12.63;68.69;101152.97;5072641;28;20193;-70
2021/05/25 07:55:38;;;;;;;2.03;1.20;;;;;;;12.57;66.50;101145.31;5070610;28;20185;-70
2021/05/25 07:58:07;;;;;;;1.20;1.10;;;;;;;12.68;67.56;101148.13;5071867;28;20659;-71
2021/05/25 08:00:35;;;;;;;2.80;1.10;;;;;;;12.78;67.16;101150.16;5070652;28;20196;-70
2021/05/25 08:03:04;;;;;;;1.73;1.20;;;;;;;12.89;66.89;101148.44;5069378;28;20205;-71
2021/05/25 08:05:32;;;;;;;3.50;1.60;;;;;;;12.92;65.64;101137.44;5070875;28;20315;-70
2021/05/25 08:08:02;;;;;;;1.47;1.10;;;;;;;13.02;65.25;101152.00;5071071;28;20216;-71
2021/05/25 08:10:30;;;;;;;4.40;1.20;;;;;;;13.24;63.71;101140.56;5071051;28;20242;-70
2021/05/25 08:12:58;;;;;;;0.83;0.80;;;;;;;13.56;62.92;101132.81;5070212;28;20237;-71
2021/05/25 08:15:28;;;;;;;1.37;1.07;;;;;;;14.10;63.77;101139.59;5071139;28;20196;-71
2021/05/25 08:18:09;;;;;;;2.50;1.00;;;;;;;14.46;62.15;101127.81;5070530;28;20197;-70
2021/05/25 08:20:39;;;;;;;4.80;1.17;;;;;;;14.48;60.16;101129.41;5070667;28;20207;-70
2021/05/25 08:23:24;;;;;;;5.23;1.33;;;;;;;14.49;59.95;101122.16;5070436;28;20691;-70
2021/05/25 08:25:52;;;;;;;2.90;1.10;;;;;;;14.80;60.24;101123.31;5069900;28;20224;-70
2021/05/25 08:28:20;;;;;;;3.30;1.20;;;;;;;14.97;59.19;101120.09;5070419;28;20239;-71
2021/05/25 08:30:48;;;;;;;1.17;1.00;;;;;;;15.33;60.45;101112.72;5072531;28;20280;-70
2021/05/25 08:33:17;;;;;;;1.57;0.97;;;;;;;15.48;58.08;101131.25;5069877;28;20259;-67
2021/05/25 08:35:48;;;;;;;0.90;0.90;;;;;;;15.73;57.29;101104.91;5068097;28;20190;-67
2021/05/25 08:38:20;;;;;;;1.53;1.17;;;;;;;15.87;57.25;101074.78;5066695;28;20204;-68
2021/05/25 08:40:50;;;;;;;1.67;1.20;;;;;;;16.04;56.17;101092.34;5068363;28;20235;-68
2021/05/25 08:43:18;;;;;;;2.37;1.00;;;;;;;16.02;54.54;101084.34;5067560;28;20210;-68
2021/05/25 08:45:46;;;;;;;1.63;0.80;;;;;;;16.11;55.32;101093.53;5067627;28;20226;-68
2021/05/25 08:48:14;;;;;;;1.07;0.97;;;;;;;16.31;54.82;101089.97;5082404;28;20207;-68
2021/05/25 08:50:56;;;;;;;3.33;1.10;;;;;;;16.33;55.21;101041.06;5067561;28;20292;-68
2021/05/25 08:53:24;;;;;;;1.10;0.90;;;;;;;16.89;54.41;101078.63;5068295;28;20204;-70
2021/05/25 08:55:52;;;;;;;1.10;1.00;;;;;;;17.00;51.53;101083.94;5069795;28;20189;-71
2021/05/25 08:58:22;;;;;;;0.93;0.93;;;;;;;17.03;49.00;101078.25;5069081;28;20281;-69
2021/05/25 09:00:52;;;;;;;2.00;1.00;;;;;;;16.95;48.77;101084.38;5067694;28;20292;-70
2021/05/25 09:03:21;;;;;;;0.90;0.90;;;;;;;16.92;50.79;101084.63;5069705;28;20719;-71
2021/05/25 09:05:55;;;;;;;1.10;1.03;;;;;;;16.64;49.32;101094.31;5068153;28;20229;-70
2021/05/25 09:08:23;;;;;;;1.53;1.20;;;;;;;16.50;49.69;101093.78;5067998;28;20239;-71
2021/05/25 09:10:51;;;;;;;0.80;0.80;;;;;;;16.49;50.21;101083.94;5071182;28;20193;-71
2021/05/25 09:13:21;;;;;;;1.50;1.17;;;;;;;16.62;51.21;101084.59;5068275;28;20256;-67
2021/05/25 09:15:50;;;;;;;6.80;1.00;;;;;;;16.89;50.07;101079.50;5065293;28;20204;-67
2021/05/25 09:18:19;;;;;;;2.40;1.27;;;;;;;16.93;50.16;101091.78;5066348;28;20216;-67
2021/05/25 09:20:48;;;;;;;3.87;1.23;;;;;;;17.07;49.06;101080.53;5067662;28;20194;-68
2021/05/25 09:23:19;;;;;;;1.07;1.00;;;;;;;17.25;47.81;101080.75;5070243;28;20285;-70
2021/05/25 09:25:56;;;;;;;2.17;1.13;;;;;;;17.28;48.95;101083.19;5069645;28;20664;-70
2021/05/25 09:28:24;;;;;;;2.50;1.00;;;;;;;17.31;47.71;101082.03;5068413;28;20301;-70
2021/05/25 09:30:52;;;;;;;2.50;1.10;;;;;;;17.48;48.02;101078.66;5072345;28;20230;-70
2021/05/25 09:33:26;;;;;;;3.33;1.10;;;;;;;17.50;48.83;101068.53;5069202;28;20201;-70
2021/05/25 09:35:54;;;;;;;2.80;1.07;;;;;;;17.64;48.53;101073.53;5068592;28;20197;-70
2021/05/25 09:38:26;;;;;;;1.77;1.00;;;;;;;17.66;47.80;101074.25;5067044;28;20648;-70
2021/05/25 09:41:00;;;;;;;1.13;0.80;;;;;;;17.45;46.83;101049.09;5068379;28;20232;-70
2021/05/25 09:43:30;;;;;;;3.30;1.20;;;;;;;17.48;47.07;101075.09;5068797;28;20193;-70
2021/05/25 09:46:05;;;;;;;1.33;0.97;;;;;;;17.46;47.29;101056.22;5068840;28;20556;-70
2021/05/25 09:48:52;;;;;;;0.90;0.90;;;;;;;17.58;48.10;101070.53;5068889;28;20189;-69
2021/05/25 09:51:22;;;;;;;3.37;0.97;;;;;;;17.71;48.12;101067.56;5067741;28;20207;-70
2021/05/25 09:53:55;;;;;;;1.97;0.90;;;;;;;17.65;47.16;101061.66;5067763;28;20197;-70
2021/05/25 09:56:27;;;;;;;1.60;0.90;;;;;;;17.75;47.36;101058.13;5069928;28;20192;-69
2021/05/25 09:58:57;;;;;;;1.37;1.00;;;;;;;17.94;48.39;101056.25;5068322;28;20476;-67
2021/05/25 10:01:32;;;;;;;2.40;0.90;;;;;;;17.86;48.03;101060.72;5067949;28;20630;-67
2021/05/25 10:04:10;;;;;;;0.77;0.77;;;;;;;17.69;49.01;101052.25;5064944;28;20193;-68
2021/05/25 10:06:39;;;;;;;4.23;1.03;;;;;;;17.79;47.59;101051.44;5067646;28;20213;-67
2021/05/25 10:09:08;;;;;;;2.30;1.20;;;;;;;17.36;47.93;101030.91;5067201;28;20201;-67
2021/05/25 10:11:37;;;;;;;1.53;0.90;;;;;;;17.29;48.85;101032.47;5067240;28;20228;-67
2021/05/25 10:14:06;;;;;;;2.57;0.90;;;;;;;17.51;49.10;101040.38;5067187;28;20252;-67
2021/05/25 10:16:36;;;;;;;4.73;1.10;;;;;;;17.31;49.46;101030.47;5066749;28;20531;-68
2021/05/25 10:19:25;;;;;;;1.10;1.00;;;;;;;17.20;48.99;101033.31;5066536;28;20252;-67
2021/05/25 10:21:55;;;;;;;1.03;0.90;;;;;;;17.10;49.69;101033.25;5069191;28;20205;-70
2021/05/25 10:24:23;;;;;;;2.10;1.20;;;;;;;17.30;48.71;101018.75;5068129;28;20192;-70
2021/05/25 10:26:52;;;;;;;2.40;1.20;;;;;;;17.38;48.44;101015.31;5067709;28;20749;-70
2021/05/25 10:29:20;;;;;;;1.17;1.03;;;;;;;17.57;48.32;101014.50;5070072;28;20225;-70
2021/05/25 10:31:56;;;;;;;0.97;0.90;;;;;;;17.16;47.51;100966.72;5068468;28;20193;-70
2021/05/25 10:34:30;;;;;;;0.87;0.87;;;;;;;17.53;47.17;101010.34;5068279;28;20314;-70
2021/05/25 10:37:00;;;;;;;0.90;0.90;;;;;;;17.51;46.86;101001.47;5067631;28;20185;-70
2021/05/25 10:39:34;;;;;;;2.43;0.97;;;;;;;17.17;47.47;100972.03;5067393;28;20201;-70
2021/05/25 10:42:31;;;;;;;2.27;1.03;;;;;;;17.33;49.19;101014.88;5071478;28;20663;-70
2021/05/25 10:45:18;;;;;;;1.10;0.80;;;;;;;17.27;48.85;100999.16;5066530;28;20204;-70
2021/05/25 10:48:05;;;;;;;2.53;1.03;;;;;;;17.11;48.94;100990.69;5067892;28;20319;-70
2021/05/25 10:50:37;;;;;;;2.67;1.10;;;;;;;16.98;49.47;101002.69;5062532;28;20209;-70
2021/05/25 10:53:27;;;;;;;0.87;0.80;;;;;;;16.96;49.41;100987.53;5066574;28;20225;-70
2021/05/25 10:55:56;;;;;;;1.47;1.00;;;;;;;16.99;49.69;101004.41;5067316;28;20337;-69
2021/05/25 10:58:29;;;;;;;1.17;0.97;;;;;;;17.06;49.14;100994.69;5067865;28;20197;-69
2021/05/25 11:00:58;;;;;;;0.80;0.80;;;;;;;17.17;49.35;101001.03;5065792;28;20284;-69
2021/05/25 11:03:26;;;;;;;1.00;0.90;;;;;;;17.06;49.13;100997.41;5069837;28;20205;-69
2021/05/25 11:05:56;;;;;;;0.77;0.77;;;;;;;17.07;48.94;100999.13;5067137;28;20204;-70
2021/05/25 11:08:29;;;;;;;0.90;0.90;;;;;;;16.97;48.79;101011.81;5067422;28;20252;-69
2021/05/25 11:11:04;;;;;;;3.53;1.07;;;;;;;16.69;50.04;100980.88;5067966;28;20212;-69
2021/05/25 11:13:37;;;;;;;0.90;0.90;;;;;;;16.90;50.08;101021.50;5067589;28;20247;-70
2021/05/25 11:16:09;;;;;;;2.77;1.10;;;;;;;16.90;49.47;101018.81;5070832;28;20575;-67
2021/05/25 11:18:41;;;;;;;1.10;1.10;;;;;;;16.92;49.61;101019.53;5069305;28;20219;-67
2021/05/25 11:21:22;;;;;;;1.80;1.13;;;;;;;16.87;49.45;101015.50;5070985;28;20185;-68
2021/05/25 11:23:51;;;;;;;1.50;0.80;;;;;;;16.86;49.58;101017.38;5068700;28;20193;-68
2021/05/25 11:26:56;;;;;;;2.40;0.80;;;;;;;16.87;49.32;101027.22;5070470;28;20648;-70
2021/05/25 11:29:26;;;;;;;5.23;0.93;;;;;;;16.53;49.09;101028.44;5071572;28;20729;-70
2021/05/25 11:31:56;;;;;;;1.00;1.00;;;;;;;16.40;51.52;101037.66;5069107;28;20652;-69
2021/05/25 11:34:26;;;;;;;0.90;0.90;;;;;;;16.10;52.48;101038.47;5070391;28;20189;-70
2021/05/25 11:36:56;;;;;;;1.50;1.40;;;;;;;16.04;54.36;101038.16;5072825;28;20671;-71
2021/05/25 11:39:24;;;;;;;3.17;0.97;;;;;;;15.83;53.71;101036.28;5071876;28;20266;-71